createdAt,value
2022-09-07T00:02:26.637Z,87.07
2022-09-07T00:04:53.431Z,87.10
2022-09-07T00:07:20.662Z,87.22
2022-09-07T00:09:47.497Z,87.28
2022-09-07T00:12:14.282Z,87.54
2022-09-07T00:14:41.096Z,87.92
2022-09-07T00:17:07.842Z,88.05
2022-09-07T00:19:34.597Z,87.72
2022-09-07T00:22:01.536Z,88.21
2022-09-07T00:24:28.311Z,88.08
2022-09-07T00:27:55.030Z,88.06
2022-09-07T00:35:04.609Z,88.37
2022-09-07T00:38:31.182Z,88.61
2022-09-07T00:41:57.954Z,88.86
2022-09-07T00:45:03.075Z,88.99
2022-09-07T00:48:10.030Z,89.16
2022-09-07T00:55:25.144Z,89.55
2022-09-07T00:57:56.021Z,89.59
2022-09-07T01:01:22.862Z,89.85
2022-09-07T01:04:49.380Z,90.02
2022-09-07T01:08:16.025Z,90.07
2022-09-07T01:11:42.494Z,90.08
2022-09-07T01:15:14.777Z,90.44
2022-09-07T01:18:44.289Z,90.53
2022-09-07T01:21:49.454Z,90.88
2022-09-07T01:28:15.348Z,91.15
2022-09-07T01:31:41.786Z,91.17
2022-09-07T01:35:17.772Z,91.14
2022-09-07T01:38:42.316Z,91.40
2022-09-07T03:30:29.106Z,93.49
2022-09-07T03:32:55.812Z,93.09
2022-09-07T03:35:23.150Z,93.40
2022-09-07T03:37:50.351Z,93.04
2022-09-07T03:40:17.230Z,93.11
2022-09-07T03:42:47.891Z,93.13
2022-09-07T03:45:15.197Z,93.26
2022-09-07T03:47:41.872Z,93.10
2022-09-07T03:50:09.237Z,93.06
2022-09-07T03:52:37.304Z,92.89
2022-09-07T03:55:04.841Z,92.82
2022-09-07T03:57:31.634Z,93.10
2022-09-07T03:59:58.506Z,92.63
2022-09-07T04:02:25.320Z,92.91
2022-09-07T04:04:52.026Z,92.76
2022-09-07T04:07:19.113Z,92.73
2022-09-07T04:09:45.820Z,92.40
2022-09-07T04:12:12.483Z,92.76
2022-09-07T04:14:39.514Z,92.43
2022-09-07T04:17:06.309Z,92.43
2022-09-07T04:19:33.069Z,92.48
2022-09-07T04:22:00.131Z,92.47
2022-09-07T04:24:26.988Z,92.14
2022-09-07T04:26:53.756Z,92.13
2022-09-07T04:29:20.481Z,91.98
2022-09-07T04:31:47.481Z,92.00
2022-09-07T04:34:14.675Z,91.86
2022-09-07T04:36:41.494Z,91.77
2022-09-07T04:39:08.318Z,91.65
2022-09-07T04:41:35.067Z,91.67
2022-09-07T04:44:04.640Z,91.60
2022-09-07T04:46:37.054Z,91.79
2022-09-07T04:49:09.487Z,91.63
2022-09-07T04:51:38.477Z,91.31
2022-09-07T04:54:06.342Z,91.56
2022-09-07T04:56:33.496Z,91.33
2022-09-07T04:59:01.879Z,90.98
2022-09-07T05:01:29.028Z,90.89
2022-09-07T05:03:55.980Z,91.11
2022-09-07T05:06:23.499Z,90.78
2022-09-07T05:08:52.413Z,90.70
2022-09-07T05:11:22.859Z,90.76
2022-09-07T05:13:52.146Z,90.55
2022-09-07T05:16:22.043Z,90.37
2022-09-07T05:18:57.724Z,90.35
2022-09-07T05:21:27.510Z,90.44
2022-09-07T05:23:56.194Z,90.27
2022-09-07T05:26:25.625Z,90.29
2022-09-07T05:28:52.750Z,90.10
2022-09-07T05:31:22.301Z,90.13
2022-09-07T05:36:38.182Z,90.21
2022-09-07T05:39:06.553Z,89.98
2022-09-07T05:41:33.247Z,90.11
2022-09-07T05:46:47.153Z,89.88
2022-09-07T05:49:13.895Z,90.18
2022-09-07T05:51:41.233Z,90.17
2022-09-07T05:54:08.226Z,89.90
2022-09-07T05:56:36.486Z,89.86
2022-09-07T05:59:03.818Z,90.22
2022-09-07T06:01:31.444Z,90.22
2022-09-07T06:03:58.381Z,90.05
2022-09-07T06:07:27.209Z,89.76
2022-09-07T06:14:47.885Z,89.63
2022-09-07T06:18:14.533Z,89.51
2022-09-07T06:21:24.007Z,89.41
2022-09-07T06:24:51.074Z,89.78
2022-09-07T06:28:17.623Z,89.69
2022-09-07T06:35:30.721Z,89.28
2022-09-07T06:42:51.129Z,89.46
2022-09-07T06:50:04.887Z,89.39
2022-09-07T06:53:34.470Z,89.10
2022-09-07T06:56:05.030Z,89.14
2022-09-07T06:58:31.922Z,89.16
2022-09-07T07:00:58.986Z,89.26
2022-09-07T07:03:25.883Z,89.11
2022-09-07T07:05:56.884Z,89.31
2022-09-07T07:08:25.786Z,88.94
2022-09-07T07:10:53.155Z,88.86
2022-09-07T07:15:46.754Z,89.11
2022-09-07T07:18:21.298Z,89.04
2022-09-07T07:20:48.426Z,89.09
2022-09-07T07:23:15.239Z,89.01
2022-09-07T07:25:41.947Z,89.11
2022-09-07T07:30:58.034Z,88.95
2022-09-07T07:33:29.376Z,89.05
2022-09-07T07:35:56.003Z,89.12
2022-09-07T07:44:00.541Z,88.85
2022-09-07T07:46:28.616Z,89.18
2022-09-07T07:48:55.841Z,88.95
2022-09-07T07:51:22.727Z,88.92
2022-09-07T07:53:49.765Z,88.77
2022-09-07T07:56:16.521Z,89.12
2022-09-07T07:58:48.008Z,88.91
2022-09-07T08:01:17.520Z,89.00
2022-09-07T08:03:47.497Z,89.04
2022-09-07T08:06:20.334Z,88.67
2022-09-07T08:08:47.700Z,89.00
2022-09-07T08:11:19.596Z,89.03
2022-09-07T08:13:49.621Z,88.86
2022-09-07T08:16:17.484Z,88.95
2022-09-07T08:18:47.012Z,89.28
2022-09-07T08:21:15.867Z,89.14
2022-09-07T08:23:42.757Z,89.36
2022-09-07T08:26:12.435Z,89.29
2022-09-07T08:28:41.320Z,89.42
2022-09-07T08:31:13.738Z,89.19
2022-09-07T08:33:41.382Z,88.96
2022-09-07T08:36:11.806Z,89.01
2022-09-07T08:38:38.797Z,89.20
2022-09-07T08:41:43.693Z,89.12
2022-09-07T08:44:24.777Z,89.10
2022-09-07T08:46:56.864Z,89.00
2022-09-07T08:49:41.336Z,89.18
2022-09-07T08:52:16.785Z,89.07
2022-09-07T08:54:50.174Z,89.03
2022-09-07T08:57:26.439Z,88.74
2022-09-07T09:00:09.451Z,88.86
2022-09-07T09:02:42.463Z,88.77
2022-09-07T09:05:25.900Z,88.83
2022-09-07T09:08:31.332Z,88.81
2022-09-07T09:11:04.237Z,88.83
2022-09-07T09:13:52.293Z,88.60
2022-09-07T09:16:22.023Z,88.52
2022-09-07T09:19:25.807Z,88.27
2022-09-07T09:22:14.717Z,88.29
2022-09-07T09:24:47.435Z,88.58
2022-09-07T09:27:14.868Z,88.35
2022-09-07T09:29:42.470Z,88.02
2022-09-07T09:32:35.268Z,87.87
2022-09-07T09:35:31.119Z,87.85
2022-09-07T09:37:58.137Z,88.09
2022-09-07T09:40:27.688Z,87.56
2022-09-07T09:43:22.581Z,87.85
2022-09-07T09:48:41.828Z,87.85
2022-09-07T09:53:58.339Z,87.60
2022-09-07T09:56:42.958Z,87.46
2022-09-07T10:05:29.791Z,87.49
2022-09-07T10:07:57.153Z,87.41
2022-09-07T10:10:25.245Z,87.48
2022-09-07T10:12:56.627Z,87.21
2022-09-07T10:15:32.814Z,87.01
2022-09-07T10:18:06.120Z,86.96
2022-09-07T10:20:38.111Z,86.59
2022-09-07T10:23:06.713Z,86.47
2022-09-07T10:25:39.876Z,86.46
2022-09-07T10:28:12.844Z,85.81
2022-09-07T10:30:45.293Z,85.71
2022-09-07T10:33:33.323Z,85.49
2022-09-07T10:36:26.370Z,84.94
2022-09-07T10:39:01.550Z,85.06
2022-09-07T10:41:48.464Z,84.81
2022-09-07T10:44:30.080Z,84.69
2022-09-07T10:47:20.098Z,84.42
2022-09-07T10:53:13.380Z,84.50
2022-09-07T10:56:11.658Z,84.24
2022-09-07T10:59:16.341Z,84.25
2022-09-07T11:01:51.688Z,84.21
2022-09-07T11:04:40.206Z,83.93
2022-09-07T11:07:47.913Z,83.79
2022-09-07T11:10:48.744Z,83.58
2022-09-07T11:13:22.365Z,83.52
2022-09-07T11:16:50.624Z,83.57
2022-09-07T11:22:16.678Z,83.40
2022-09-07T11:28:19.644Z,83.29
2022-09-07T11:30:51.001Z,83.25
2022-09-07T11:33:24.309Z,83.16
2022-09-07T11:35:58.897Z,83.37
2022-09-07T11:38:25.992Z,83.25
2022-09-07T11:41:18.532Z,83.77
2022-09-07T11:44:17.498Z,83.72
2022-09-07T11:46:46.466Z,83.62
2022-09-07T11:49:30.610Z,83.62
2022-09-07T11:52:07.103Z,83.71
2022-09-07T11:54:39.679Z,83.73
2022-09-07T11:57:06.228Z,83.72
2022-09-07T11:59:36.757Z,84.05
2022-09-07T12:02:03.591Z,84.20
2022-09-07T12:05:06.066Z,84.26
2022-09-07T12:07:41.615Z,83.94
2022-09-07T12:10:49.976Z,83.46
2022-09-07T12:13:43.450Z,82.87
2022-09-07T12:16:15.927Z,81.99
2022-09-07T12:18:51.596Z,81.31
2022-09-07T12:21:41.144Z,80.21
2022-09-07T12:24:35.335Z,78.69
2022-09-07T12:27:10.608Z,77.27
2022-09-07T12:29:37.690Z,75.74
2022-09-07T12:32:53.708Z,74.76
2022-09-07T12:34:54.956Z,73.29
2022-09-07T12:37:27.714Z,72.60
2022-09-07T12:40:28.639Z,71.52
2022-09-07T12:43:13.421Z,70.47
2022-09-07T12:45:48.636Z,69.50
2022-09-07T12:48:15.368Z,68.54
2022-09-07T12:50:54.346Z,67.76
2022-09-07T12:53:30.118Z,66.89
2022-09-07T12:56:27.984Z,66.24
2022-09-07T12:59:32.257Z,65.66
2022-09-07T13:02:24.222Z,65.66
2022-09-07T13:04:53.559Z,65.28
2022-09-07T13:08:08.012Z,65.00
2022-09-07T13:10:38.149Z,64.57
2022-09-07T13:16:11.722Z,63.71
2022-09-07T13:18:41.598Z,63.52
2022-09-07T13:21:08.373Z,63.22
2022-09-07T13:23:38.607Z,63.05
2022-09-07T13:26:32.682Z,62.72
2022-09-07T13:29:04.471Z,62.50
2022-09-07T13:31:56.294Z,62.49
2022-09-07T13:34:30.099Z,62.05
2022-09-07T13:36:58.204Z,61.73
2022-09-07T13:39:25.541Z,61.48
2022-09-07T13:41:56.179Z,60.97
2022-09-07T13:44:32.509Z,60.60
2022-09-07T13:47:28.880Z,60.57
2022-09-07T13:50:17.162Z,60.83
2022-09-07T13:52:51.886Z,60.75
2022-09-07T13:55:31.679Z,60.88
2022-09-07T13:58:15.368Z,61.12
2022-09-07T14:01:05.005Z,60.77
2022-09-07T14:03:40.290Z,61.18
2022-09-07T14:06:22.711Z,60.92
2022-09-07T14:08:55.802Z,61.64
2022-09-07T14:11:45.403Z,62.10
2022-09-07T14:14:29.481Z,62.48
2022-09-07T14:17:07.474Z,62.61
2022-09-07T14:19:41.419Z,63.01
2022-09-07T14:22:21.979Z,63.22
2022-09-07T14:25:07.946Z,63.47
2022-09-07T14:27:41.142Z,63.84
2022-09-07T14:30:29.021Z,64.13
2022-09-07T14:32:59.899Z,64.63
2022-09-07T14:35:37.160Z,65.12
2022-09-07T14:41:19.547Z,65.90
2022-09-07T14:43:58.074Z,66.45
2022-09-07T14:46:25.977Z,66.75
2022-09-07T14:48:58.350Z,66.98
2022-09-07T14:51:35.092Z,67.22
2022-09-07T14:54:08.175Z,67.91
2022-09-07T14:56:37.387Z,68.21
2022-09-07T14:59:36.925Z,68.36
2022-09-07T15:02:19.150Z,69.00
2022-09-07T15:05:10.054Z,69.08
2022-09-07T15:07:41.554Z,69.67
2022-09-07T15:10:29.266Z,69.76
2022-09-07T15:12:58.710Z,70.46
2022-09-07T15:15:29.227Z,70.61
2022-09-07T15:18:03.123Z,70.71
2022-09-07T15:20:37.169Z,70.60
2022-09-07T15:23:05.929Z,70.92
2022-09-07T15:25:34.524Z,70.99
2022-09-07T15:28:01.633Z,71.18
2022-09-07T15:30:28.787Z,71.07
2022-09-07T15:32:57.345Z,71.21
2022-09-07T15:35:24.743Z,70.94
2022-09-07T15:38:59.435Z,70.92
2022-09-07T15:41:10.660Z,70.87
2022-09-07T15:43:31.525Z,70.80
2022-09-07T15:45:58.552Z,70.65
2022-09-07T15:48:26.006Z,70.32
2022-09-07T15:51:01.581Z,70.04
2022-09-07T15:56:17.255Z,69.31
2022-09-07T15:58:46.609Z,69.20
2022-09-07T16:04:01.656Z,68.73
2022-09-07T16:06:31.187Z,68.97
2022-09-07T16:08:57.841Z,69.01
2022-09-07T16:11:26.924Z,68.90
2022-09-07T16:14:02.288Z,69.12
2022-09-07T16:19:20.377Z,69.52
2022-09-07T16:21:48.121Z,69.61
2022-09-07T16:24:14.850Z,69.73
2022-09-07T16:26:41.555Z,69.62
2022-09-07T16:29:08.580Z,69.91
2022-09-07T16:31:35.641Z,70.02
2022-09-07T16:34:03.511Z,70.16
2022-09-07T16:36:30.779Z,70.28
2022-09-07T16:38:59.868Z,70.51
2022-09-07T16:41:29.423Z,70.28
2022-09-07T16:43:56.369Z,70.23
2022-09-07T16:46:25.611Z,69.94
2022-09-07T16:48:52.782Z,69.51
2022-09-07T16:51:21.426Z,68.74
2022-09-07T16:53:50.058Z,68.14
2022-09-07T16:56:19.490Z,67.70
2022-09-07T16:58:52.620Z,67.65
2022-09-07T17:01:22.546Z,66.98
2022-09-07T17:03:49.951Z,66.04
2022-09-07T17:06:18.561Z,64.88
2022-09-07T17:08:45.262Z,64.24
2022-09-07T17:11:17.377Z,64.01
2022-09-07T17:13:44.684Z,64.13
2022-09-07T17:16:24.256Z,64.01
2022-09-07T17:21:39.656Z,64.81
2022-09-07T17:24:08.355Z,65.00
2022-09-07T17:26:35.669Z,64.97
2022-09-07T17:29:02.454Z,65.36
2022-09-07T17:34:22.180Z,65.68
2022-09-07T17:36:49.288Z,65.99
2022-09-07T17:39:18.623Z,66.25
2022-09-07T17:41:47.748Z,66.39
2022-09-07T17:44:15.020Z,66.74
2022-09-07T17:46:41.685Z,67.07
2022-09-07T17:49:16.827Z,67.27
2022-09-07T17:51:44.804Z,67.84
2022-09-07T17:54:14.844Z,68.19
2022-09-07T17:56:42.370Z,68.16
2022-09-07T18:01:57.071Z,69.09
2022-09-07T18:04:24.619Z,69.51
2022-09-07T18:06:53.004Z,69.92
2022-09-07T18:09:20.136Z,70.56
2022-09-07T18:11:49.166Z,70.97
2022-09-07T18:14:17.070Z,71.41
2022-09-07T18:16:45.666Z,71.75
2022-09-07T18:19:12.861Z,72.07
2022-09-07T18:21:42.153Z,72.40
2022-09-07T18:24:21.279Z,72.51
2022-09-07T18:26:51.786Z,73.02
2022-09-07T18:29:32.197Z,73.21
2022-09-07T18:32:01.365Z,73.52
2022-09-07T18:34:31.902Z,74.16
2022-09-07T18:36:59.235Z,74.62
2022-09-07T18:39:27.070Z,74.66
2022-09-07T18:41:54.547Z,75.14
2022-09-07T18:47:08.956Z,75.76
2022-09-07T18:49:35.619Z,76.24
2022-09-07T18:54:50.331Z,76.68
2022-09-07T18:57:17.127Z,77.02
2022-09-07T18:59:43.780Z,77.06
2022-09-07T19:02:10.939Z,77.37
2022-09-07T19:07:29.528Z,77.95
2022-09-07T19:09:56.471Z,77.82
2022-09-07T19:12:23.947Z,77.97
2022-09-07T19:14:51.001Z,78.28
2022-09-07T19:17:18.008Z,78.52
2022-09-07T19:19:44.762Z,78.75
2022-09-07T19:22:11.841Z,78.72
2022-09-07T19:24:38.649Z,79.12
2022-09-07T19:27:07.224Z,79.16
2022-09-07T19:29:34.114Z,79.03
2022-09-07T19:32:07.764Z,79.43
2022-09-07T19:34:37.206Z,79.57
2022-09-07T19:37:05.768Z,79.34
2022-09-07T19:39:32.667Z,79.52
2022-09-07T19:42:00.075Z,79.83
2022-09-07T19:44:26.963Z,79.92
2022-09-07T19:46:53.721Z,80.14
2022-09-07T19:49:20.636Z,80.00
2022-09-07T19:51:50.291Z,80.08
2022-09-07T19:54:17.002Z,80.48
2022-09-07T19:56:45.159Z,80.59
2022-09-07T19:59:12.664Z,80.62
2022-09-07T20:01:40.663Z,80.54
2022-09-07T20:04:15.987Z,80.60
2022-09-07T20:06:46.741Z,80.77
2022-09-07T20:09:16.746Z,81.15
2022-09-07T20:11:46.524Z,81.01
2022-09-07T20:14:15.176Z,81.21
2022-09-07T20:16:42.248Z,81.40
2022-09-07T20:19:13.914Z,81.68
2022-09-07T20:21:40.630Z,81.47
2022-09-07T20:24:07.607Z,81.77
2022-09-07T20:26:34.439Z,81.52
2022-09-07T20:29:23.830Z,81.90
2022-09-07T20:31:48.184Z,81.73
2022-09-07T20:34:14.921Z,82.00
2022-09-07T20:36:41.586Z,82.19
2022-09-07T20:39:08.516Z,82.29
2022-09-07T20:41:35.480Z,82.42
2022-09-07T20:44:04.034Z,82.34
2022-09-07T20:46:31.830Z,82.55
2022-09-07T20:48:58.863Z,82.61
2022-09-07T20:51:26.079Z,82.54
2022-09-07T20:53:53.179Z,82.69
2022-09-07T20:56:25.945Z,82.52
2022-09-07T20:59:00.640Z,82.79
2022-09-07T21:01:28.910Z,82.81
2022-09-07T21:03:58.178Z,82.96
2022-09-07T21:06:26.616Z,83.02
2022-09-07T21:08:54.762Z,82.93
2022-09-07T21:11:23.059Z,82.77
2022-09-07T21:14:06.362Z,82.60
2022-09-07T21:16:34.331Z,82.88
2022-09-07T21:19:02.213Z,82.75
2022-09-07T21:21:37.762Z,82.91
2022-09-07T21:24:05.881Z,83.08
2022-09-07T21:26:32.996Z,82.93
2022-09-07T21:29:02.114Z,83.00
2022-09-07T21:31:31.073Z,83.09
2022-09-07T21:33:59.701Z,83.00
2022-09-07T21:36:27.156Z,83.16
2022-09-07T21:38:54.398Z,82.95
2022-09-07T21:41:22.885Z,83.26
2022-09-07T21:43:56.150Z,82.97
2022-09-07T21:46:24.114Z,82.92
2022-09-07T21:48:50.876Z,82.96
2022-09-07T21:51:18.242Z,82.75
2022-09-07T21:53:45.055Z,83.00
2022-09-07T21:56:14.090Z,82.91
2022-09-07T21:58:41.372Z,82.90
2022-09-07T22:01:13.239Z,82.62
2022-09-07T22:03:40.696Z,82.71
2022-09-07T22:06:10.942Z,82.71
2022-09-07T22:08:39.901Z,83.05
2022-09-07T22:11:09.757Z,82.72
2022-09-07T22:13:37.271Z,83.04
2022-09-07T22:16:05.726Z,82.76
2022-09-07T22:18:32.850Z,82.91
2022-09-07T22:21:08.363Z,82.70
2022-09-07T22:23:38.522Z,82.83
2022-09-07T22:26:05.966Z,82.69
2022-09-07T22:28:33.424Z,82.96
2022-09-07T22:31:18.971Z,82.92
2022-09-07T22:33:47.814Z,83.04
2022-09-07T22:36:23.136Z,82.63
2022-09-07T22:38:53.061Z,82.78
2022-09-07T22:41:28.277Z,82.89
2022-09-07T22:43:56.262Z,82.55
2022-09-07T22:46:25.255Z,82.84
2022-09-07T22:48:54.628Z,82.73
2022-09-07T22:51:22.075Z,83.01
2022-09-07T22:53:48.885Z,82.96
2022-09-07T22:56:18.726Z,82.83
2022-09-07T22:58:51.051Z,82.69
2022-09-07T23:01:18.158Z,82.69
2022-09-07T23:03:45.776Z,82.95
2022-09-07T23:06:23.457Z,82.86
2022-09-07T23:08:51.709Z,82.92
2022-09-07T23:11:19.864Z,83.21
2022-09-07T23:13:53.584Z,82.93
2022-09-07T23:16:21.552Z,83.31
2022-09-07T23:18:48.651Z,83.03
2022-09-07T23:21:15.626Z,83.24
2022-09-07T23:23:42.544Z,83.15
2022-09-07T23:26:09.619Z,83.11
2022-09-07T23:28:36.919Z,83.07
2022-09-07T23:31:03.847Z,83.45
2022-09-07T23:33:30.922Z,83.43
2022-09-07T23:36:00.478Z,83.28
2022-09-07T23:38:29.414Z,83.29
2022-09-07T23:40:57.773Z,83.52
2022-09-07T23:43:27.468Z,83.14
2022-09-07T23:45:55.229Z,83.25
2022-09-07T23:48:23.010Z,83.56
2022-09-07T23:50:50.686Z,83.58
2022-09-07T23:53:18.091Z,83.51
2022-09-07T23:55:46.040Z,83.40
2022-09-07T23:58:13.110Z,83.53
